Terminal Aerodrome Forecast
Issued by NWS

Home | Current Version | Previous Version | Text Only | Print | Product List | Glossary On
Versions: 1 2 3 4 5 6 7 8 9 10 11 12 13 14 15 16 17 18 19
606
FTUS43 KGRB 200900 AAB
TAFMTW
TAF AMD
KMTW 200900Z 2009/2106 13004KT 2SM BR FEW005 WS005/13025KT
      TEMPO 2009/2013 1/4SM FG BKN005
     FM201300 14009KT 6SM BR SCT070
     FM201600 16014G22KT P6SM BKN070 PROB30 2023/2102 5SM -TSRA
      OVC030CB=

USA.gov is the U.S. government's official web portal to all federal, state and local government web resources and services.